sensor_id;sensor_type;location;lat;lon;timestamp;P1;durP1;ratioP1;P2;durP2;ratioP2
69463;SDS011;56665;41.106;16.688;2023-03-11T00:02:42;7.30;;;1.50;;
69463;SDS011;56665;41.106;16.688;2023-03-11T00:05:46;9.77;;;1.63;;
69463;SDS011;56665;41.106;16.688;2023-03-11T00:08:50;9.23;;;1.42;;
69463;SDS011;56665;41.106;16.688;2023-03-11T00:11:54;10.75;;;2.03;;
69463;SDS011;56665;41.106;16.688;2023-03-11T00:14:59;10.32;;;1.60;;
69463;SDS011;56665;41.106;16.688;2023-03-11T00:18:03;7.50;;;1.57;;
69463;SDS011;56665;41.106;16.688;2023-03-11T00:21:15;7.60;;;1.30;;
69463;SDS011;56665;41.106;16.688;2023-03-11T00:24:22;7.18;;;1.63;;
69463;SDS011;56665;41.106;16.688;2023-03-11T00:27:25;9.68;;;1.73;;
69463;SDS011;56665;41.106;16.688;2023-03-11T00:30:29;7.32;;;1.70;;
69463;SDS011;56665;41.106;16.688;2023-03-11T00:33:36;4.90;;;1.30;;
69463;SDS011;56665;41.106;16.688;2023-03-11T00:36:39;8.07;;;1.70;;
69463;SDS011;56665;41.106;16.688;2023-03-11T00:39:43;5.63;;;1.02;;
69463;SDS011;56665;41.106;16.688;2023-03-11T00:42:49;6.25;;;1.40;;
69463;SDS011;56665;41.106;16.688;2023-03-11T00:45:52;6.65;;;1.48;;
69463;SDS011;56665;41.106;16.688;2023-03-11T00:48:56;8.43;;;1.40;;
69463;SDS011;56665;41.106;16.688;2023-03-11T00:52:00;5.35;;;1.30;;
69463;SDS011;56665;41.106;16.688;2023-03-11T00:55:05;6.38;;;1.45;;
69463;SDS011;56665;41.106;16.688;2023-03-11T00:58:10;4.70;;;1.65;;
69463;SDS011;56665;41.106;16.688;2023-03-11T01:01:22;6.35;;;1.63;;
69463;SDS011;56665;41.106;16.688;2023-03-11T01:04:26;6.73;;;1.50;;
69463;SDS011;56665;41.106;16.688;2023-03-11T01:07:31;10.18;;;1.98;;
69463;SDS011;56665;41.106;16.688;2023-03-11T01:10:36;8.18;;;1.30;;
69463;SDS011;56665;41.106;16.688;2023-03-11T01:13:39;8.07;;;1.40;;
69463;SDS011;56665;41.106;16.688;2023-03-11T01:16:43;5.32;;;1.73;;
69463;SDS011;56665;41.106;16.688;2023-03-11T01:19:48;6.43;;;1.33;;
69463;SDS011;56665;41.106;16.688;2023-03-11T01:22:52;6.45;;;1.33;;
69463;SDS011;56665;41.106;16.688;2023-03-11T01:25:56;6.93;;;1.95;;
69463;SDS011;56665;41.106;16.688;2023-03-11T01:29:01;5.90;;;1.70;;
69463;SDS011;56665;41.106;16.688;2023-03-11T01:32:06;4.93;;;1.13;;
69463;SDS011;56665;41.106;16.688;2023-03-11T01:35:14;6.53;;;1.33;;
69463;SDS011;56665;41.106;16.688;2023-03-11T01:38:22;8.65;;;1.42;;
69463;SDS011;56665;41.106;16.688;2023-03-11T01:41:26;7.18;;;1.50;;
69463;SDS011;56665;41.106;16.688;2023-03-11T01:44:29;8.13;;;1.50;;
69463;SDS011;56665;41.106;16.688;2023-03-11T01:47:36;6.85;;;1.50;;
69463;SDS011;56665;41.106;16.688;2023-03-11T01:50:45;6.23;;;1.27;;
69463;SDS011;56665;41.106;16.688;2023-03-11T01:53:54;7.28;;;1.90;;
69463;SDS011;56665;41.106;16.688;2023-03-11T01:57:00;8.50;;;1.60;;
69463;SDS011;56665;41.106;16.688;2023-03-11T02:00:10;7.30;;;1.23;;
69463;SDS011;56665;41.106;16.688;2023-03-11T02:03:51;7.85;;;1.38;;
69463;SDS011;56665;41.106;16.688;2023-03-11T02:06:48;7.57;;;1.73;;
69463;SDS011;56665;41.106;16.688;2023-03-11T02:09:52;9.05;;;1.30;;
69463;SDS011;56665;41.106;16.688;2023-03-11T02:12:55;5.30;;;1.35;;
69463;SDS011;56665;41.106;16.688;2023-03-11T02:15:59;8.38;;;1.25;;
69463;SDS011;56665;41.106;16.688;2023-03-11T02:19:08;8.13;;;1.42;;
69463;SDS011;56665;41.106;16.688;2023-03-11T02:22:27;6.80;;;1.60;;
69463;SDS011;56665;41.106;16.688;2023-03-11T02:25:41;7.28;;;1.52;;
69463;SDS011;56665;41.106;16.688;2023-03-11T02:29:20;8.85;;;1.83;;
69463;SDS011;56665;41.106;16.688;2023-03-11T02:32:25;9.55;;;1.58;;
69463;SDS011;56665;41.106;16.688;2023-03-11T02:35:29;8.02;;;1.40;;
69463;SDS011;56665;41.106;16.688;2023-03-11T02:38:33;9.43;;;1.40;;
69463;SDS011;56665;41.106;16.688;2023-03-11T02:41:38;5.47;;;1.40;;
69463;SDS011;56665;41.106;16.688;2023-03-11T02:44:45;6.95;;;1.48;;
69463;SDS011;56665;41.106;16.688;2023-03-11T02:47:54;8.57;;;2.03;;
69463;SDS011;56665;41.106;16.688;2023-03-11T02:51:00;7.88;;;1.67;;
69463;SDS011;56665;41.106;16.688;2023-03-11T02:54:06;11.97;;;2.00;;
69463;SDS011;56665;41.106;16.688;2023-03-11T02:57:13;10.05;;;2.03;;
69463;SDS011;56665;41.106;16.688;2023-03-11T03:00:19;8.20;;;1.48;;
69463;SDS011;56665;41.106;16.688;2023-03-11T03:03:34;7.43;;;1.60;;
69463;SDS011;56665;41.106;16.688;2023-03-11T03:06:39;9.23;;;1.85;;
69463;SDS011;56665;41.106;16.688;2023-03-11T03:09:43;7.53;;;1.90;;
69463;SDS011;56665;41.106;16.688;2023-03-11T03:12:47;6.30;;;1.90;;
69463;SDS011;56665;41.106;16.688;2023-03-11T03:15:52;9.82;;;1.85;;
69463;SDS011;56665;41.106;16.688;2023-03-11T03:18:55;7.97;;;1.38;;
69463;SDS011;56665;41.106;16.688;2023-03-11T03:21:59;6.57;;;1.98;;
69463;SDS011;56665;41.106;16.688;2023-03-11T03:25:06;10.63;;;2.20;;
69463;SDS011;56665;41.106;16.688;2023-03-11T03:28:10;7.18;;;1.80;;
69463;SDS011;56665;41.106;16.688;2023-03-11T03:31:17;8.25;;;1.45;;
69463;SDS011;56665;41.106;16.688;2023-03-11T03:34:22;10.13;;;1.85;;
69463;SDS011;56665;41.106;16.688;2023-03-11T03:37:26;7.68;;;1.63;;
69463;SDS011;56665;41.106;16.688;2023-03-11T03:40:31;8.07;;;1.50;;
69463;SDS011;56665;41.106;16.688;2023-03-11T03:43:37;9.85;;;1.73;;
69463;SDS011;56665;41.106;16.688;2023-03-11T03:46:43;9.23;;;1.80;;
69463;SDS011;56665;41.106;16.688;2023-03-11T03:49:46;7.80;;;1.50;;
69463;SDS011;56665;41.106;16.688;2023-03-11T03:52:51;7.65;;;1.65;;
69463;SDS011;56665;41.106;16.688;2023-03-11T03:55:56;5.83;;;1.63;;
69463;SDS011;56665;41.106;16.688;2023-03-11T03:59:04;8.73;;;1.52;;
69463;SDS011;56665;41.106;16.688;2023-03-11T04:02:14;8.52;;;1.88;;
69463;SDS011;56665;41.106;16.688;2023-03-11T04:05:18;10.23;;;1.70;;
69463;SDS011;56665;41.106;16.688;2023-03-11T04:08:24;6.38;;;1.60;;
69463;SDS011;56665;41.106;16.688;2023-03-11T04:11:28;8.07;;;1.70;;
69463;SDS011;56665;41.106;16.688;2023-03-11T04:14:32;8.13;;;1.70;;
69463;SDS011;56665;41.106;16.688;2023-03-11T04:17:38;9.63;;;1.70;;
69463;SDS011;56665;41.106;16.688;2023-03-11T04:20:41;9.30;;;1.30;;
69463;SDS011;56665;41.106;16.688;2023-03-11T04:23:46;10.77;;;1.70;;
69463;SDS011;56665;41.106;16.688;2023-03-11T04:26:55;7.33;;;1.77;;
69463;SDS011;56665;41.106;16.688;2023-03-11T04:29:59;8.20;;;1.63;;
69463;SDS011;56665;41.106;16.688;2023-03-11T04:33:03;12.45;;;1.92;;
69463;SDS011;56665;41.106;16.688;2023-03-11T04:36:11;10.23;;;2.13;;
69463;SDS011;56665;41.106;16.688;2023-03-11T04:39:15;11.07;;;2.13;;
69463;SDS011;56665;41.106;16.688;2023-03-11T04:42:21;8.90;;;1.93;;
69463;SDS011;56665;41.106;16.688;2023-03-11T04:45:26;11.23;;;2.08;;
69463;SDS011;56665;41.106;16.688;2023-03-11T04:48:32;10.02;;;1.90;;
69463;SDS011;56665;41.106;16.688;2023-03-11T04:51:37;9.43;;;2.00;;
69463;SDS011;56665;41.106;16.688;2023-03-11T04:54:42;8.60;;;1.70;;
69463;SDS011;56665;41.106;16.688;2023-03-11T04:57:46;14.83;;;2.60;;
69463;SDS011;56665;41.106;16.688;2023-03-11T05:00:52;10.85;;;2.10;;
69463;SDS011;56665;41.106;16.688;2023-03-11T05:03:57;16.95;;;2.85;;
69463;SDS011;56665;41.106;16.688;2023-03-11T05:07:02;11.82;;;2.45;;
69463;SDS011;56665;41.106;16.688;2023-03-11T05:10:07;12.57;;;2.83;;
69463;SDS011;56665;41.106;16.688;2023-03-11T05:13:13;18.07;;;3.73;;
69463;SDS011;56665;41.106;16.688;2023-03-11T05:16:18;11.90;;;3.30;;
69463;SDS011;56665;41.106;16.688;2023-03-11T05:19:22;16.67;;;3.40;;
69463;SDS011;56665;41.106;16.688;2023-03-11T05:22:34;11.75;;;2.72;;
69463;SDS011;56665;41.106;16.688;2023-03-11T05:25:39;13.43;;;2.63;;
69463;SDS011;56665;41.106;16.688;2023-03-11T05:28:43;15.73;;;3.30;;
69463;SDS011;56665;41.106;16.688;2023-03-11T05:31:47;10.82;;;2.65;;
69463;SDS011;56665;41.106;16.688;2023-03-11T05:34:51;10.32;;;2.60;;
69463;SDS011;56665;41.106;16.688;2023-03-11T05:37:55;14.07;;;2.88;;
69463;SDS011;56665;41.106;16.688;2023-03-11T05:41:01;11.82;;;2.72;;
69463;SDS011;56665;41.106;16.688;2023-03-11T05:44:07;15.73;;;3.50;;
69463;SDS011;56665;41.106;16.688;2023-03-11T05:47:11;10.68;;;3.80;;
69463;SDS011;56665;41.106;16.688;2023-03-11T05:50:15;13.60;;;3.42;;
69463;SDS011;56665;41.106;16.688;2023-03-11T05:53:20;9.63;;;2.83;;
69463;SDS011;56665;41.106;16.688;2023-03-11T05:56:24;14.25;;;3.78;;
69463;SDS011;56665;41.106;16.688;2023-03-11T05:59:30;14.40;;;3.10;;
69463;SDS011;56665;41.106;16.688;2023-03-11T06:02:39;12.88;;;2.80;;
69463;SDS011;56665;41.106;16.688;2023-03-11T06:05:48;12.93;;;3.58;;
69463;SDS011;56665;41.106;16.688;2023-03-11T06:08:54;13.40;;;3.72;;
69463;SDS011;56665;41.106;16.688;2023-03-11T06:12:00;11.13;;;3.20;;
69463;SDS011;56665;41.106;16.688;2023-03-11T06:15:12;10.50;;;4.00;;
69463;SDS011;56665;41.106;16.688;2023-03-11T06:18:17;11.90;;;3.53;;
69463;SDS011;56665;41.106;16.688;2023-03-11T06:21:22;13.15;;;4.20;;
69463;SDS011;56665;41.106;16.688;2023-03-11T06:24:29;18.40;;;5.13;;
69463;SDS011;56665;41.106;16.688;2023-03-11T06:27:35;15.10;;;4.45;;
69463;SDS011;56665;41.106;16.688;2023-03-11T06:30:39;13.33;;;4.60;;
69463;SDS011;56665;41.106;16.688;2023-03-11T06:33:49;18.55;;;6.32;;
69463;SDS011;56665;41.106;16.688;2023-03-11T06:36:54;20.83;;;6.43;;
69463;SDS011;56665;41.106;16.688;2023-03-11T06:39:59;23.38;;;7.50;;
69463;SDS011;56665;41.106;16.688;2023-03-11T06:43:03;24.23;;;8.45;;
69463;SDS011;56665;41.106;16.688;2023-03-11T06:46:11;19.13;;;6.90;;
69463;SDS011;56665;41.106;16.688;2023-03-11T06:49:18;21.45;;;5.45;;
69463;SDS011;56665;41.106;16.688;2023-03-11T06:52:22;23.13;;;7.90;;
69463;SDS011;56665;41.106;16.688;2023-03-11T06:55:27;15.32;;;4.93;;
69463;SDS011;56665;41.106;16.688;2023-03-11T06:58:35;15.43;;;4.78;;
69463;SDS011;56665;41.106;16.688;2023-03-11T07:01:40;15.83;;;5.50;;
69463;SDS011;56665;41.106;16.688;2023-03-11T07:04:49;20.40;;;6.28;;
69463;SDS011;56665;41.106;16.688;2023-03-11T07:07:55;19.25;;;5.72;;
69463;SDS011;56665;41.106;16.688;2023-03-11T07:11:04;16.17;;;4.00;;
69463;SDS011;56665;41.106;16.688;2023-03-11T07:14:11;15.43;;;4.35;;
69463;SDS011;56665;41.106;16.688;2023-03-11T07:17:01;19.40;;;4.13;;
69463;SDS011;56665;41.106;16.688;2023-03-11T07:20:11;22.02;;;5.82;;
69463;SDS011;56665;41.106;16.688;2023-03-11T07:23:16;17.15;;;3.88;;
69463;SDS011;56665;41.106;16.688;2023-03-11T07:26:21;15.05;;;4.18;;
69463;SDS011;56665;41.106;16.688;2023-03-11T07:29:25;19.13;;;4.57;;
69463;SDS011;56665;41.106;16.688;2023-03-11T07:32:29;18.33;;;3.70;;
69463;SDS011;56665;41.106;16.688;2023-03-11T07:35:34;15.93;;;4.63;;
69463;SDS011;56665;41.106;16.688;2023-03-11T07:38:38;22.40;;;4.25;;
69463;SDS011;56665;41.106;16.688;2023-03-11T07:41:43;16.90;;;4.20;;
69463;SDS011;56665;41.106;16.688;2023-03-11T07:44:51;45.53;;;7.85;;
69463;SDS011;56665;41.106;16.688;2023-03-11T07:47:54;21.43;;;4.87;;
69463;SDS011;56665;41.106;16.688;2023-03-11T07:51:06;20.55;;;3.80;;
69463;SDS011;56665;41.106;16.688;2023-03-11T07:54:13;15.05;;;4.43;;
69463;SDS011;56665;41.106;16.688;2023-03-11T07:57:17;15.93;;;4.32;;
69463;SDS011;56665;41.106;16.688;2023-03-11T08:00:21;16.08;;;4.07;;
69463;SDS011;56665;41.106;16.688;2023-03-11T08:03:26;13.02;;;4.80;;
69463;SDS011;56665;41.106;16.688;2023-03-11T08:06:30;18.33;;;5.78;;
69463;SDS011;56665;41.106;16.688;2023-03-11T08:09:38;17.60;;;6.00;;
69463;SDS011;56665;41.106;16.688;2023-03-11T08:12:42;14.85;;;4.53;;
69463;SDS011;56665;41.106;16.688;2023-03-11T08:15:46;12.95;;;3.92;;
69463;SDS011;56665;41.106;16.688;2023-03-11T08:18:50;11.97;;;3.07;;
69463;SDS011;56665;41.106;16.688;2023-03-11T08:21:54;12.10;;;3.22;;
69463;SDS011;56665;41.106;16.688;2023-03-11T08:24:59;15.75;;;3.55;;
69463;SDS011;56665;41.106;16.688;2023-03-11T08:28:03;12.43;;;3.28;;
69463;SDS011;56665;41.106;16.688;2023-03-11T08:31:13;13.07;;;3.47;;
69463;SDS011;56665;41.106;16.688;2023-03-11T08:34:22;13.70;;;4.43;;
69463;SDS011;56665;41.106;16.688;2023-03-11T08:37:26;12.73;;;4.40;;
69463;SDS011;56665;41.106;16.688;2023-03-11T08:40:30;13.07;;;4.38;;
69463;SDS011;56665;41.106;16.688;2023-03-11T08:43:35;16.15;;;4.28;;
69463;SDS011;56665;41.106;16.688;2023-03-11T08:46:39;24.10;;;5.25;;
69463;SDS011;56665;41.106;16.688;2023-03-11T08:49:44;20.63;;;4.73;;
69463;SDS011;56665;41.106;16.688;2023-03-11T08:52:48;37.38;;;6.20;;
69463;SDS011;56665;41.106;16.688;2023-03-11T08:55:53;30.33;;;5.65;;
69463;SDS011;56665;41.106;16.688;2023-03-11T08:58:57;30.40;;;5.20;;
69463;SDS011;56665;41.106;16.688;2023-03-11T09:02:00;18.80;;;3.67;;
69463;SDS011;56665;41.106;16.688;2023-03-11T09:05:06;14.27;;;3.97;;
69463;SDS011;56665;41.106;16.688;2023-03-11T09:08:09;20.75;;;4.78;;
69463;SDS011;56665;41.106;16.688;2023-03-11T09:11:15;27.15;;;5.07;;
69463;SDS011;56665;41.106;16.688;2023-03-11T09:14:21;21.42;;;5.07;;
69463;SDS011;56665;41.106;16.688;2023-03-11T09:17:25;29.02;;;4.50;;
69463;SDS011;56665;41.106;16.688;2023-03-11T09:20:29;31.65;;;5.22;;
69463;SDS011;56665;41.106;16.688;2023-03-11T09:23:33;36.33;;;6.40;;
69463;SDS011;56665;41.106;16.688;2023-03-11T09:26:36;32.65;;;6.70;;
69463;SDS011;56665;41.106;16.688;2023-03-11T09:29:41;27.95;;;4.57;;
69463;SDS011;56665;41.106;16.688;2023-03-11T09:32:46;16.95;;;4.20;;
69463;SDS011;56665;41.106;16.688;2023-03-11T09:35:50;18.58;;;3.83;;
69463;SDS011;56665;41.106;16.688;2023-03-11T09:38:54;18.80;;;4.30;;
69463;SDS011;56665;41.106;16.688;2023-03-11T09:45:22;20.42;;;4.43;;
69463;SDS011;56665;41.106;16.688;2023-03-11T09:48:33;23.40;;;4.50;;
69463;SDS011;56665;41.106;16.688;2023-03-11T09:51:44;45.42;;;7.25;;
69463;SDS011;56665;41.106;16.688;2023-03-11T09:54:53;21.25;;;4.47;;
69463;SDS011;56665;41.106;16.688;2023-03-11T09:58:01;18.65;;;4.30;;
69463;SDS011;56665;41.106;16.688;2023-03-11T10:01:14;38.03;;;6.55;;
69463;SDS011;56665;41.106;16.688;2023-03-11T10:04:35;49.97;;;9.13;;
69463;SDS011;56665;41.106;16.688;2023-03-11T10:07:46;31.52;;;5.10;;
69463;SDS011;56665;41.106;16.688;2023-03-11T10:11:03;28.63;;;5.45;;
69463;SDS011;56665;41.106;16.688;2023-03-11T10:21:30;39.47;;;6.82;;
69463;SDS011;56665;41.106;16.688;2023-03-11T10:25:02;26.98;;;4.05;;
69463;SDS011;56665;41.106;16.688;2023-03-11T10:28:16;10.70;;;2.60;;
69463;SDS011;56665;41.106;16.688;2023-03-11T10:31:24;12.30;;;3.33;;
69463;SDS011;56665;41.106;16.688;2023-03-11T10:34:36;9.45;;;2.60;;
69463;SDS011;56665;41.106;16.688;2023-03-11T10:37:49;9.70;;;2.67;;
69463;SDS011;56665;41.106;16.688;2023-03-11T10:40:59;11.00;;;2.38;;
69463;SDS011;56665;41.106;16.688;2023-03-11T10:44:14;10.82;;;2.25;;
69463;SDS011;56665;41.106;16.688;2023-03-11T10:47:23;7.72;;;2.33;;
69463;SDS011;56665;41.106;16.688;2023-03-11T10:50:29;10.45;;;2.70;;
69463;SDS011;56665;41.106;16.688;2023-03-11T10:53:46;8.15;;;2.33;;
69463;SDS011;56665;41.106;16.688;2023-03-11T10:57:46;8.15;;;2.10;;
69463;SDS011;56665;41.106;16.688;2023-03-11T11:00:28;7.65;;;2.60;;
69463;SDS011;56665;41.106;16.688;2023-03-11T11:03:33;10.90;;;2.50;;
69463;SDS011;56665;41.106;16.688;2023-03-11T11:06:37;12.48;;;2.55;;
69463;SDS011;56665;41.106;16.688;2023-03-11T11:09:40;8.00;;;2.22;;
69463;SDS011;56665;41.106;16.688;2023-03-11T11:16:25;9.15;;;2.60;;
69463;SDS011;56665;41.106;16.688;2023-03-11T11:19:30;8.70;;;2.45;;
69463;SDS011;56665;41.106;16.688;2023-03-11T11:22:34;6.85;;;1.92;;
69463;SDS011;56665;41.106;16.688;2023-03-11T11:25:39;6.47;;;1.80;;
69463;SDS011;56665;41.106;16.688;2023-03-11T11:28:45;10.53;;;2.40;;
69463;SDS011;56665;41.106;16.688;2023-03-11T11:32:22;8.75;;;2.08;;
69463;SDS011;56665;41.106;16.688;2023-03-11T11:35:28;8.52;;;2.20;;
69463;SDS011;56665;41.106;16.688;2023-03-11T11:38:33;7.55;;;2.47;;
69463;SDS011;56665;41.106;16.688;2023-03-11T11:41:38;10.23;;;2.72;;
69463;SDS011;56665;41.106;16.688;2023-03-11T11:44:42;12.90;;;4.40;;
69463;SDS011;56665;41.106;16.688;2023-03-11T11:47:53;18.90;;;6.93;;
69463;SDS011;56665;41.106;16.688;2023-03-11T11:51:00;14.68;;;5.05;;
69463;SDS011;56665;41.106;16.688;2023-03-11T11:54:15;14.48;;;5.25;;
69463;SDS011;56665;41.106;16.688;2023-03-11T11:57:27;11.48;;;3.42;;
69463;SDS011;56665;41.106;16.688;2023-03-11T12:00:37;12.50;;;3.80;;
69463;SDS011;56665;41.106;16.688;2023-03-11T12:11:01;17.95;;;5.88;;
69463;SDS011;56665;41.106;16.688;2023-03-11T12:14:29;15.68;;;4.75;;
69463;SDS011;56665;41.106;16.688;2023-03-11T12:17:48;14.55;;;5.00;;
69463;SDS011;56665;41.106;16.688;2023-03-11T12:20:57;14.13;;;4.18;;
69463;SDS011;56665;41.106;16.688;2023-03-11T12:27:40;13.35;;;3.40;;
69463;SDS011;56665;41.106;16.688;2023-03-11T12:30:55;15.30;;;4.18;;
69463;SDS011;56665;41.106;16.688;2023-03-11T12:34:02;12.63;;;3.95;;
69463;SDS011;56665;41.106;16.688;2023-03-11T12:37:12;12.80;;;3.42;;
69463;SDS011;56665;41.106;16.688;2023-03-11T12:40:57;11.32;;;2.97;;
69463;SDS011;56665;41.106;16.688;2023-03-11T12:44:04;11.85;;;3.20;;
69463;SDS011;56665;41.106;16.688;2023-03-11T12:47:26;13.90;;;3.63;;
69463;SDS011;56665;41.106;16.688;2023-03-11T12:50:38;13.10;;;3.67;;
69463;SDS011;56665;41.106;16.688;2023-03-11T12:53:47;11.60;;;3.45;;
69463;SDS011;56665;41.106;16.688;2023-03-11T12:56:54;11.10;;;3.60;;
69463;SDS011;56665;41.106;16.688;2023-03-11T13:06:46;13.93;;;3.40;;
69463;SDS011;56665;41.106;16.688;2023-03-11T13:10:14;15.30;;;3.50;;
69463;SDS011;56665;41.106;16.688;2023-03-11T13:13:38;14.18;;;3.08;;
69463;SDS011;56665;41.106;16.688;2023-03-11T13:16:46;14.43;;;3.42;;
69463;SDS011;56665;41.106;16.688;2023-03-11T13:19:58;13.60;;;3.25;;
69463;SDS011;56665;41.106;16.688;2023-03-11T13:26:28;11.60;;;2.80;;
69463;SDS011;56665;41.106;16.688;2023-03-11T13:40:32;12.43;;;3.37;;
69463;SDS011;56665;41.106;16.688;2023-03-11T13:43:44;10.15;;;2.50;;
69463;SDS011;56665;41.106;16.688;2023-03-11T13:46:52;12.05;;;2.85;;
69463;SDS011;56665;41.106;16.688;2023-03-11T13:50:08;12.55;;;3.42;;
69463;SDS011;56665;41.106;16.688;2023-03-11T13:53:20;8.90;;;2.55;;
69463;SDS011;56665;41.106;16.688;2023-03-11T13:56:30;12.60;;;2.60;;
69463;SDS011;56665;41.106;16.688;2023-03-11T13:59:38;14.82;;;3.58;;
69463;SDS011;56665;41.106;16.688;2023-03-11T14:02:46;11.40;;;2.38;;
69463;SDS011;56665;41.106;16.688;2023-03-11T14:06:06;12.23;;;2.85;;
69463;SDS011;56665;41.106;16.688;2023-03-11T14:09:20;9.27;;;2.70;;
69463;SDS011;56665;41.106;16.688;2023-03-11T14:12:30;11.35;;;2.55;;
69463;SDS011;56665;41.106;16.688;2023-03-11T14:15:41;10.93;;;2.72;;
69463;SDS011;56665;41.106;16.688;2023-03-11T14:19:05;10.07;;;1.95;;
69463;SDS011;56665;41.106;16.688;2023-03-11T14:22:16;10.27;;;2.90;;
69463;SDS011;56665;41.106;16.688;2023-03-11T14:25:25;11.13;;;2.83;;
69463;SDS011;56665;41.106;16.688;2023-03-11T14:28:32;8.93;;;2.30;;
69463;SDS011;56665;41.106;16.688;2023-03-11T14:31:40;8.20;;;1.90;;
69463;SDS011;56665;41.106;16.688;2023-03-11T14:34:49;6.75;;;2.08;;
69463;SDS011;56665;41.106;16.688;2023-03-11T14:37:52;9.82;;;2.05;;
69463;SDS011;56665;41.106;16.688;2023-03-11T14:41:00;9.05;;;2.00;;
69463;SDS011;56665;41.106;16.688;2023-03-11T14:44:07;8.20;;;2.00;;
69463;SDS011;56665;41.106;16.688;2023-03-11T14:47:17;9.30;;;2.45;;
69463;SDS011;56665;41.106;16.688;2023-03-11T14:50:35;12.20;;;2.20;;
69463;SDS011;56665;41.106;16.688;2023-03-11T14:53:44;10.30;;;2.85;;
69463;SDS011;56665;41.106;16.688;2023-03-11T14:56:59;7.93;;;2.38;;
69463;SDS011;56665;41.106;16.688;2023-03-11T15:00:19;11.43;;;2.90;;
69463;SDS011;56665;41.106;16.688;2023-03-11T15:03:31;8.35;;;2.00;;
69463;SDS011;56665;41.106;16.688;2023-03-11T15:06:43;9.30;;;2.15;;
69463;SDS011;56665;41.106;16.688;2023-03-11T15:09:48;12.18;;;3.65;;
69463;SDS011;56665;41.106;16.688;2023-03-11T15:13:02;9.13;;;1.98;;
69463;SDS011;56665;41.106;16.688;2023-03-11T15:19:32;8.60;;;2.38;;
69463;SDS011;56665;41.106;16.688;2023-03-11T15:22:37;10.60;;;2.83;;
69463;SDS011;56665;41.106;16.688;2023-03-11T15:25:46;11.60;;;3.85;;
69463;SDS011;56665;41.106;16.688;2023-03-11T15:29:03;11.48;;;3.80;;
69463;SDS011;56665;41.106;16.688;2023-03-11T15:32:22;14.82;;;4.13;;
69463;SDS011;56665;41.106;16.688;2023-03-11T15:35:56;10.82;;;3.83;;
69463;SDS011;56665;41.106;16.688;2023-03-11T15:39:44;12.35;;;4.07;;
69463;SDS011;56665;41.106;16.688;2023-03-11T15:42:32;10.57;;;3.53;;
69463;SDS011;56665;41.106;16.688;2023-03-11T15:45:36;12.25;;;4.25;;
69463;SDS011;56665;41.106;16.688;2023-03-11T15:48:41;12.23;;;4.57;;
69463;SDS011;56665;41.106;16.688;2023-03-11T15:51:45;11.45;;;4.88;;
69463;SDS011;56665;41.106;16.688;2023-03-11T15:54:49;10.63;;;3.75;;
69463;SDS011;56665;41.106;16.688;2023-03-11T15:57:59;10.52;;;3.20;;
69463;SDS011;56665;41.106;16.688;2023-03-11T16:01:08;12.25;;;3.17;;
69463;SDS011;56665;41.106;16.688;2023-03-11T16:04:16;12.73;;;4.57;;
69463;SDS011;56665;41.106;16.688;2023-03-11T16:07:21;13.30;;;4.50;;
69463;SDS011;56665;41.106;16.688;2023-03-11T16:10:26;18.65;;;7.70;;
69463;SDS011;56665;41.106;16.688;2023-03-11T16:13:31;18.23;;;6.65;;
69463;SDS011;56665;41.106;16.688;2023-03-11T16:16:35;10.93;;;4.20;;
69463;SDS011;56665;41.106;16.688;2023-03-11T16:19:39;10.17;;;3.23;;
69463;SDS011;56665;41.106;16.688;2023-03-11T16:22:47;9.90;;;2.55;;
69463;SDS011;56665;41.106;16.688;2023-03-11T16:25:52;10.95;;;2.85;;
69463;SDS011;56665;41.106;16.688;2023-03-11T16:29:01;10.75;;;3.38;;
69463;SDS011;56665;41.106;16.688;2023-03-11T16:32:06;14.20;;;5.10;;
69463;SDS011;56665;41.106;16.688;2023-03-11T16:35:12;10.87;;;4.07;;
69463;SDS011;56665;41.106;16.688;2023-03-11T16:38:16;15.15;;;5.03;;
69463;SDS011;56665;41.106;16.688;2023-03-11T16:41:22;14.82;;;4.13;;
69463;SDS011;56665;41.106;16.688;2023-03-11T16:44:26;18.75;;;5.60;;
69463;SDS011;56665;41.106;16.688;2023-03-11T16:47:30;14.13;;;4.82;;
69463;SDS011;56665;41.106;16.688;2023-03-11T16:50:33;12.63;;;3.77;;
69463;SDS011;56665;41.106;16.688;2023-03-11T16:53:37;16.30;;;7.60;;
69463;SDS011;56665;41.106;16.688;2023-03-11T16:56:41;18.25;;;7.25;;
69463;SDS011;56665;41.106;16.688;2023-03-11T16:59:45;20.77;;;7.65;;
69463;SDS011;56665;41.106;16.688;2023-03-11T17:02:49;16.60;;;6.57;;
69463;SDS011;56665;41.106;16.688;2023-03-11T17:05:59;17.27;;;8.10;;
69463;SDS011;56665;41.106;16.688;2023-03-11T17:09:03;19.70;;;8.45;;
69463;SDS011;56665;41.106;16.688;2023-03-11T17:12:07;16.98;;;7.40;;
69463;SDS011;56665;41.106;16.688;2023-03-11T17:15:14;23.88;;;10.85;;
69463;SDS011;56665;41.106;16.688;2023-03-11T17:18:18;25.88;;;9.82;;
69463;SDS011;56665;41.106;16.688;2023-03-11T17:21:23;22.27;;;8.90;;
69463;SDS011;56665;41.106;16.688;2023-03-11T17:24:27;16.40;;;7.75;;
69463;SDS011;56665;41.106;16.688;2023-03-11T17:27:32;25.42;;;10.10;;
69463;SDS011;56665;41.106;16.688;2023-03-11T17:30:40;18.27;;;8.93;;
69463;SDS011;56665;41.106;16.688;2023-03-11T17:33:45;15.98;;;7.43;;
69463;SDS011;56665;41.106;16.688;2023-03-11T17:36:49;18.80;;;7.07;;
69463;SDS011;56665;41.106;16.688;2023-03-11T17:39:54;19.60;;;6.68;;
69463;SDS011;56665;41.106;16.688;2023-03-11T17:42:58;22.58;;;7.70;;
69463;SDS011;56665;41.106;16.688;2023-03-11T17:46:05;26.25;;;9.43;;
69463;SDS011;56665;41.106;16.688;2023-03-11T17:49:12;22.33;;;9.05;;
69463;SDS011;56665;41.106;16.688;2023-03-11T17:52:16;23.67;;;10.43;;
69463;SDS011;56665;41.106;16.688;2023-03-11T17:55:20;27.77;;;10.73;;
69463;SDS011;56665;41.106;16.688;2023-03-11T17:58:24;33.25;;;14.10;;
69463;SDS011;56665;41.106;16.688;2023-03-11T18:01:28;29.55;;;14.68;;
69463;SDS011;56665;41.106;16.688;2023-03-11T18:04:32;25.98;;;11.80;;
69463;SDS011;56665;41.106;16.688;2023-03-11T18:07:36;21.13;;;8.93;;
69463;SDS011;56665;41.106;16.688;2023-03-11T18:10:47;16.83;;;7.07;;
69463;SDS011;56665;41.106;16.688;2023-03-11T18:13:56;19.77;;;6.32;;
69463;SDS011;56665;41.106;16.688;2023-03-11T18:17:00;15.60;;;5.55;;
69463;SDS011;56665;41.106;16.688;2023-03-11T18:20:04;20.50;;;6.97;;
69463;SDS011;56665;41.106;16.688;2023-03-11T18:23:10;18.35;;;6.10;;
69463;SDS011;56665;41.106;16.688;2023-03-11T18:26:17;21.40;;;5.82;;
69463;SDS011;56665;41.106;16.688;2023-03-11T18:29:21;14.15;;;5.50;;
69463;SDS011;56665;41.106;16.688;2023-03-11T18:32:24;16.25;;;5.30;;
69463;SDS011;56665;41.106;16.688;2023-03-11T18:35:28;21.90;;;7.05;;
69463;SDS011;56665;41.106;16.688;2023-03-11T18:38:32;14.50;;;5.27;;
69463;SDS011;56665;41.106;16.688;2023-03-11T18:41:36;13.13;;;4.57;;
69463;SDS011;56665;41.106;16.688;2023-03-11T18:44:40;13.40;;;4.85;;
69463;SDS011;56665;41.106;16.688;2023-03-11T18:47:44;11.40;;;4.78;;
69463;SDS011;56665;41.106;16.688;2023-03-11T18:50:54;12.48;;;4.25;;
69463;SDS011;56665;41.106;16.688;2023-03-11T18:53:59;10.23;;;3.67;;
69463;SDS011;56665;41.106;16.688;2023-03-11T18:57:04;12.70;;;3.40;;
69463;SDS011;56665;41.106;16.688;2023-03-11T19:00:08;11.00;;;2.97;;
69463;SDS011;56665;41.106;16.688;2023-03-11T19:03:12;11.50;;;4.57;;
69463;SDS011;56665;41.106;16.688;2023-03-11T19:06:16;15.30;;;6.30;;
69463;SDS011;56665;41.106;16.688;2023-03-11T19:09:20;15.20;;;5.50;;
69463;SDS011;56665;41.106;16.688;2023-03-11T19:12:23;13.30;;;5.18;;